createdAt,value
2018-09-12T00:00:17.195Z,4.23
2018-09-12T00:02:29.372Z,4.27
2018-09-12T00:04:41.594Z,4.63
2018-09-12T00:06:53.853Z,4.40
2018-09-12T00:09:07.923Z,4.30
2018-09-12T00:11:20.173Z,4.27
2018-09-12T00:13:32.399Z,3.97
2018-09-12T00:15:44.603Z,3.90
2018-09-12T00:17:56.802Z,3.83
2018-09-12T00:20:09.003Z,4.07
2018-09-12T00:22:21.216Z,3.97
2018-09-12T00:24:33.534Z,4.27
2018-09-12T00:26:45.702Z,3.97
2018-09-12T00:28:57.911Z,4.33
2018-09-12T00:31:10.095Z,4.10
2018-09-12T00:33:22.276Z,4.33
2018-09-12T00:35:34.468Z,4.23
2018-09-12T00:37:46.646Z,4.37
2018-09-12T00:39:58.839Z,4.80
2018-09-12T00:42:12.603Z,4.47
2018-09-12T00:44:24.803Z,4.40
2018-09-12T00:46:36.979Z,3.70
2018-09-12T00:48:49.170Z,4.17
2018-09-12T00:51:01.374Z,4.60
2018-09-12T00:53:13.574Z,4.10
2018-09-12T00:55:25.788Z,3.97
2018-09-12T00:57:37.987Z,4.20
2018-09-12T00:59:50.136Z,4.50
2018-09-12T01:02:02.393Z,4.20
2018-09-12T01:04:14.627Z,4.50
2018-09-12T01:06:26.821Z,4.03
2018-09-12T01:08:39.111Z,4.17
2018-09-12T01:10:51.312Z,4.33
2018-09-12T01:13:03.548Z,4.50
2018-09-12T01:15:16.465Z,4.10
2018-09-12T01:17:28.657Z,4.20
2018-09-12T01:19:40.850Z,4.47
2018-09-12T01:21:53.039Z,4.43
2018-09-12T01:24:05.279Z,4.27
2018-09-12T01:26:17.475Z,4.20
2018-09-12T01:28:29.671Z,4.30
2018-09-12T01:30:41.863Z,4.70
2018-09-12T01:32:55.669Z,4.87
2018-09-12T01:35:07.846Z,4.50
2018-09-12T01:37:20.046Z,4.43
2018-09-12T01:39:32.266Z,4.10
2018-09-12T01:41:44.487Z,4.20
2018-09-12T01:43:56.710Z,3.87
2018-09-12T01:46:08.943Z,4.27
2018-09-12T01:48:21.116Z,4.50
2018-09-12T01:50:33.324Z,4.17
2018-09-12T01:52:46.184Z,4.17
2018-09-12T01:54:58.394Z,4.23
2018-09-12T01:57:10.619Z,3.87
2018-09-12T01:59:22.823Z,4.63
2018-09-12T02:01:35.011Z,4.60
2018-09-12T02:03:47.254Z,4.37
2018-09-12T02:05:59.489Z,4.33
2018-09-12T02:08:11.699Z,4.07
2018-09-12T02:10:23.948Z,4.47
2018-09-12T02:12:36.200Z,4.13
2018-09-12T02:14:48.378Z,4.57
2018-09-12T02:17:00.629Z,4.00
2018-09-12T02:19:12.833Z,4.37
2018-09-12T02:21:25.059Z,4.20
2018-09-12T02:23:37.307Z,4.10
2018-09-12T02:25:49.523Z,4.27
2018-09-12T02:28:01.705Z,4.17
2018-09-12T02:30:13.948Z,4.47
2018-09-12T02:32:26.179Z,3.97
2018-09-12T02:34:38.370Z,3.90
2018-09-12T02:36:50.647Z,4.27
2018-09-12T02:39:04.806Z,4.20
2018-09-12T02:41:17.066Z,3.20
2018-09-12T02:43:29.306Z,4.10
2018-09-12T02:45:41.491Z,4.07
2018-09-12T02:47:53.683Z,4.33
2018-09-12T02:50:08.041Z,4.30
2018-09-12T02:52:20.264Z,4.50
2018-09-12T02:54:32.435Z,4.13
2018-09-12T02:56:44.631Z,4.40
2018-09-12T02:58:56.839Z,4.03
2018-09-12T03:01:09.286Z,4.33
2018-09-12T03:03:21.595Z,3.90
2018-09-12T03:05:33.808Z,4.37
2018-09-12T03:07:46.094Z,4.13
2018-09-12T03:09:58.244Z,4.50
2018-09-12T03:12:10.468Z,4.80
2018-09-12T03:14:22.694Z,4.23
2018-09-12T03:16:34.906Z,4.13
2018-09-12T03:18:47.692Z,4.57
2018-09-12T03:21:00.117Z,4.50
2018-09-12T03:23:12.122Z,4.67
2018-09-12T03:25:24.315Z,4.10
2018-09-12T03:27:36.510Z,4.30
2018-09-12T03:29:48.715Z,3.87
2018-09-12T03:32:01.331Z,4.67
2018-09-12T03:34:13.515Z,4.33
2018-09-12T03:36:25.710Z,4.83
2018-09-12T03:38:37.900Z,5.27
2018-09-12T03:40:50.109Z,5.00
2018-09-12T03:43:02.390Z,5.07
2018-09-12T03:45:14.578Z,4.50
2018-09-12T03:47:26.739Z,4.60
2018-09-12T03:49:38.970Z,5.30
2018-09-12T03:51:51.179Z,5.77
2018-09-12T03:54:03.375Z,5.70
2018-09-12T03:56:15.557Z,5.47
2018-09-12T03:58:27.739Z,5.47
2018-09-12T04:00:39.958Z,5.60
2018-09-12T04:02:52.298Z,5.90
2018-09-12T04:05:05.026Z,5.60
2018-09-12T04:07:17.224Z,5.90
2018-09-12T04:09:29.431Z,5.83
2018-09-12T04:11:41.640Z,6.37
2018-09-12T04:13:53.874Z,5.30
2018-09-12T04:16:06.080Z,5.40
2018-09-12T04:18:18.383Z,5.60
2018-09-12T04:20:30.563Z,5.60
2018-09-12T04:22:42.787Z,5.00
2018-09-12T04:24:54.987Z,5.67
2018-09-12T04:27:07.491Z,5.47
2018-09-12T04:29:19.746Z,5.67
2018-09-12T04:31:32.013Z,5.07
2018-09-12T04:33:44.233Z,6.13
2018-09-12T04:35:56.436Z,5.30
2018-09-12T04:38:08.649Z,5.10
2018-09-12T04:40:20.841Z,5.60
2018-09-12T04:42:33.072Z,6.30
2018-09-12T04:44:45.297Z,6.03
2018-09-12T04:46:57.577Z,6.20
2018-09-12T04:49:09.868Z,7.40
2018-09-12T04:51:22.158Z,7.00
2018-09-12T04:53:34.385Z,7.30
2018-09-12T04:55:46.598Z,6.20
2018-09-12T04:57:58.882Z,5.33
2018-09-12T05:00:11.199Z,5.90
2018-09-12T05:02:23.436Z,5.67
2018-09-12T05:04:35.651Z,5.20
2018-09-12T05:06:47.871Z,5.67
2018-09-12T05:09:00.087Z,4.77
2018-09-12T05:11:12.291Z,5.63
2018-09-12T05:13:24.487Z,5.47
2018-09-12T05:15:36.697Z,6.00
2018-09-12T05:17:48.884Z,5.50
2018-09-12T05:20:01.109Z,5.40
2018-09-12T05:22:13.347Z,6.17
2018-09-12T05:24:25.600Z,5.67
2018-09-12T05:26:37.905Z,5.70
2018-09-12T05:28:50.226Z,5.97
2018-09-12T05:31:02.510Z,5.50
2018-09-12T05:33:14.736Z,6.10
2018-09-12T05:35:26.948Z,5.27
2018-09-12T05:37:39.199Z,5.13
2018-09-12T05:39:51.419Z,6.00
2018-09-12T05:42:03.678Z,5.47
2018-09-12T05:44:15.855Z,5.60
2018-09-12T05:46:28.095Z,5.83
2018-09-12T05:48:40.334Z,5.83
2018-09-12T05:50:52.517Z,5.63
2018-09-12T05:53:04.783Z,5.63
2018-09-12T05:55:16.971Z,5.70
2018-09-12T05:57:29.194Z,5.70
2018-09-12T05:59:41.368Z,5.60
2018-09-12T06:01:53.595Z,6.37
2018-09-12T06:04:05.858Z,5.67
2018-09-12T06:06:18.256Z,5.63
2018-09-12T06:08:30.544Z,5.53
2018-09-12T06:10:42.725Z,5.40
2018-09-12T06:12:55.007Z,5.77
2018-09-12T06:15:07.255Z,5.70
2018-09-12T06:17:19.556Z,5.20
2018-09-12T06:19:31.835Z,5.60
2018-09-12T06:21:44.065Z,5.00
2018-09-12T06:23:56.344Z,5.40
2018-09-12T06:26:08.683Z,4.77
2018-09-12T06:28:20.936Z,5.60
2018-09-12T06:30:33.175Z,4.93
2018-09-12T06:32:45.365Z,5.40
2018-09-12T06:34:57.585Z,5.13
2018-09-12T06:37:09.859Z,5.10
2018-09-12T06:39:22.073Z,5.13
2018-09-12T06:41:34.272Z,5.20
2018-09-12T06:43:46.553Z,4.90
2018-09-12T06:45:58.842Z,5.20
2018-09-12T06:48:11.056Z,4.97
2018-09-12T06:50:23.249Z,4.73
2018-09-12T06:52:35.462Z,5.17
2018-09-12T06:54:47.880Z,4.80
2018-09-12T06:57:00.152Z,5.30
2018-09-12T06:59:12.335Z,5.63
2018-09-12T07:01:24.542Z,4.97
2018-09-12T07:03:36.874Z,4.90
2018-09-12T07:05:49.160Z,5.33
2018-09-12T07:08:01.443Z,5.10
2018-09-12T07:10:13.670Z,4.50
2018-09-12T07:12:25.941Z,4.50
2018-09-12T07:14:38.144Z,4.77
2018-09-12T07:16:50.342Z,4.90
2018-09-12T07:19:02.581Z,5.00
2018-09-12T07:21:14.804Z,4.80
2018-09-12T07:23:26.999Z,5.10
2018-09-12T07:25:39.207Z,4.67
2018-09-12T07:27:51.407Z,5.57
2018-09-12T07:30:03.784Z,5.70
2018-09-12T07:32:15.995Z,5.43
2018-09-12T07:34:28.202Z,4.90
2018-09-12T07:36:40.451Z,5.10
2018-09-12T07:38:52.682Z,5.07
2018-09-12T07:41:04.904Z,5.30
2018-09-12T07:43:17.111Z,5.17
2018-09-12T07:45:29.399Z,4.80
2018-09-12T07:47:41.604Z,5.03
2018-09-12T07:49:54.366Z,4.53
2018-09-12T07:52:06.588Z,4.33
2018-09-12T07:54:18.807Z,4.00
2018-09-12T07:56:31.080Z,4.10
2018-09-12T07:58:43.235Z,4.20
2018-09-12T08:00:55.443Z,3.90
2018-09-12T08:03:07.718Z,4.10
2018-09-12T08:05:19.956Z,4.10
2018-09-12T08:07:32.267Z,4.33
2018-09-12T08:09:44.474Z,4.30
2018-09-12T08:11:56.639Z,4.60
2018-09-12T08:14:08.912Z,4.20
2018-09-12T08:16:21.103Z,3.40
2018-09-12T08:18:33.341Z,4.07
2018-09-12T08:20:45.555Z,4.30
2018-09-12T08:22:57.845Z,4.20
2018-09-12T08:25:10.055Z,4.40
2018-09-12T08:27:22.216Z,4.27
2018-09-12T08:29:34.467Z,4.00
2018-09-12T08:31:46.656Z,3.83
2018-09-12T08:33:58.930Z,3.92
2018-09-12T08:36:11.113Z,4.20
2018-09-12T08:38:23.298Z,4.00
2018-09-12T08:40:35.540Z,4.47
2018-09-12T08:42:47.735Z,4.27
2018-09-12T08:44:59.960Z,3.93
2018-09-12T08:47:12.191Z,4.00
2018-09-12T08:49:24.460Z,3.90
2018-09-12T08:51:36.692Z,3.60
2018-09-12T08:53:48.925Z,3.90
2018-09-12T08:56:01.123Z,4.25
2018-09-12T08:58:13.331Z,3.95
2018-09-12T09:00:30.119Z,4.00
2018-09-12T09:02:42.404Z,3.67
2018-09-12T09:04:54.618Z,3.95
2018-09-12T09:07:06.840Z,3.92
2018-09-12T09:09:19.099Z,3.98
2018-09-12T09:11:31.335Z,3.80
2018-09-12T09:13:43.590Z,3.47
2018-09-12T09:15:55.819Z,3.77
2018-09-12T09:18:08.036Z,3.60
2018-09-12T09:20:20.235Z,3.40
2018-09-12T09:22:32.409Z,3.35
2018-09-12T09:24:44.613Z,3.33
2018-09-12T09:26:56.823Z,3.42
2018-09-12T09:29:09.011Z,3.52
2018-09-12T09:31:21.221Z,3.40
2018-09-12T09:33:33.407Z,3.42
2018-09-12T09:35:45.667Z,3.52
2018-09-12T09:37:57.826Z,3.35
2018-09-12T09:40:10.694Z,3.27
2018-09-12T09:42:22.948Z,3.27
2018-09-12T09:44:35.163Z,3.37
2018-09-12T09:46:47.463Z,3.30
2018-09-12T09:48:59.666Z,3.90
2018-09-12T09:51:11.868Z,3.55
2018-09-12T09:53:24.128Z,3.85
2018-09-12T09:55:36.348Z,3.62
2018-09-12T09:57:48.580Z,3.40
2018-09-12T10:00:00.777Z,2.95
2018-09-12T10:02:23.651Z,3.08
2018-09-12T10:04:41.663Z,3.62
2018-09-12T10:06:58.484Z,3.40
2018-09-12T10:09:16.337Z,4.55
2018-09-12T10:11:28.570Z,3.42
2018-09-12T10:13:40.811Z,3.30
2018-09-12T10:15:53.039Z,3.10
2018-09-12T10:18:05.276Z,2.95
2018-09-12T10:20:17.526Z,3.10
2018-09-12T10:22:30.210Z,3.60
2018-09-12T10:24:42.455Z,3.27
2018-09-12T10:26:54.715Z,2.98
2018-09-12T10:29:06.946Z,3.02
2018-09-12T10:31:19.224Z,3.30
2018-09-12T10:33:31.431Z,3.20
2018-09-12T10:35:43.705Z,3.42
2018-09-12T10:37:55.939Z,3.42
2018-09-12T10:40:08.221Z,2.85
2018-09-12T10:42:20.451Z,3.42
2018-09-12T10:44:32.693Z,3.65
2018-09-12T10:46:44.950Z,3.72
2018-09-12T10:48:57.207Z,3.25
2018-09-12T10:51:09.431Z,3.42
2018-09-12T10:53:21.694Z,2.77
2018-09-12T10:55:33.983Z,3.30
2018-09-12T10:57:46.186Z,3.10
2018-09-12T10:59:58.427Z,3.22
2018-09-12T11:02:10.628Z,3.10
2018-09-12T11:04:22.902Z,3.40
2018-09-12T11:06:35.165Z,3.87
2018-09-12T11:08:47.342Z,3.37
2018-09-12T11:10:59.572Z,3.90
2018-09-12T11:13:11.819Z,3.30
2018-09-12T11:15:24.061Z,3.65
2018-09-12T11:17:36.264Z,3.80
2018-09-12T11:19:48.527Z,3.62
2018-09-12T11:22:00.775Z,3.70
2018-09-12T11:24:13.012Z,3.47
2018-09-12T11:26:25.223Z,3.45
2018-09-12T11:28:37.599Z,3.90
2018-09-12T11:30:50.122Z,4.00
2018-09-12T11:33:02.378Z,3.95
2018-09-12T11:35:14.684Z,3.95
2018-09-12T11:37:26.903Z,3.83
2018-09-12T11:39:39.111Z,4.45
2018-09-12T11:41:51.359Z,4.10
2018-09-12T11:44:04.482Z,4.03
2018-09-12T11:46:16.688Z,3.67
2018-09-12T11:48:29.154Z,3.47
2018-09-12T11:50:41.405Z,3.80
2018-09-12T11:52:53.693Z,3.75
2018-09-12T11:55:05.972Z,4.08
2018-09-12T11:57:18.175Z,3.62
2018-09-12T11:59:30.419Z,4.20
2018-09-12T12:01:42.733Z,4.03
2018-09-12T12:03:55.023Z,4.47
2018-09-12T12:06:07.321Z,3.90
2018-09-12T12:08:19.584Z,4.08
2018-09-12T12:10:31.834Z,4.30
2018-09-12T12:12:44.076Z,3.45
2018-09-12T12:14:56.324Z,3.60
2018-09-12T12:17:08.556Z,3.50
2018-09-12T12:19:20.830Z,3.87
2018-09-12T12:21:33.079Z,4.00
2018-09-12T12:23:45.283Z,3.67
2018-09-12T12:25:57.569Z,4.37
2018-09-12T12:28:09.977Z,4.22
2018-09-12T12:30:22.590Z,4.28
2018-09-12T12:32:34.876Z,4.15
2018-09-12T12:34:47.111Z,4.37
2018-09-12T12:36:59.350Z,4.08
2018-09-12T12:39:11.955Z,3.42
2018-09-12T12:41:24.261Z,4.22
2018-09-12T12:43:36.521Z,4.03
2018-09-12T12:45:48.771Z,3.60
2018-09-12T12:48:01.005Z,4.28
2018-09-12T12:50:13.261Z,3.70
2018-09-12T12:52:25.503Z,4.03
2018-09-12T12:54:37.818Z,3.80
2018-09-12T12:56:50.079Z,3.90
2018-09-12T12:59:02.358Z,4.10
2018-09-12T13:01:14.606Z,4.08
2018-09-12T13:03:26.832Z,3.72
2018-09-12T13:05:39.116Z,3.85
2018-09-12T13:07:51.350Z,3.60
2018-09-12T13:10:03.668Z,3.67
2018-09-12T13:12:15.990Z,3.65
2018-09-12T13:14:28.287Z,3.83
2018-09-12T13:16:40.491Z,3.47
2018-09-12T13:18:52.745Z,3.77
2018-09-12T13:21:05.044Z,4.08
2018-09-12T13:23:17.259Z,3.58
2018-09-12T13:25:29.478Z,4.05
2018-09-12T13:27:41.778Z,3.45
2018-09-12T13:29:53.958Z,3.25
2018-09-12T13:32:06.227Z,3.60
2018-09-12T13:34:18.527Z,3.37
2018-09-12T13:36:30.703Z,3.58
2018-09-12T13:38:43.036Z,3.20
2018-09-12T13:40:55.271Z,3.37
2018-09-12T13:43:07.546Z,3.20
2018-09-12T13:45:19.766Z,3.30
2018-09-12T13:47:32.020Z,3.50
2018-09-12T13:49:44.320Z,3.05
2018-09-12T13:51:56.559Z,3.12
2018-09-12T13:54:08.811Z,2.70
2018-09-12T13:56:21.107Z,3.30
2018-09-12T13:58:33.370Z,3.58
2018-09-12T14:00:46.124Z,3.50
2018-09-12T14:02:59.285Z,3.35
2018-09-12T14:05:11.562Z,3.55
2018-09-12T14:07:23.762Z,3.30
2018-09-12T14:09:35.964Z,3.60
2018-09-12T14:11:48.203Z,3.25
2018-09-12T14:14:00.555Z,2.75
2018-09-12T14:16:12.831Z,3.70
2018-09-12T14:18:25.043Z,3.25
2018-09-12T14:20:37.367Z,3.67
2018-09-12T14:22:49.706Z,3.65
2018-09-12T14:25:01.920Z,3.67
2018-09-12T14:27:14.152Z,3.25
2018-09-12T14:29:26.354Z,3.75
2018-09-12T14:31:38.588Z,3.22
2018-09-12T14:33:50.915Z,3.60
2018-09-12T14:36:03.179Z,3.40
2018-09-12T14:38:15.440Z,3.25
2018-09-12T14:40:27.710Z,3.05
2018-09-12T14:42:39.969Z,3.30
2018-09-12T14:44:52.295Z,3.80
2018-09-12T14:47:04.611Z,3.60
2018-09-12T14:49:16.886Z,3.20
2018-09-12T14:51:29.112Z,3.52
2018-09-12T14:53:41.372Z,3.15
2018-09-12T14:55:53.601Z,3.77
2018-09-12T14:58:05.910Z,3.17
2018-09-12T15:00:23.871Z,3.25
2018-09-12T15:02:36.111Z,3.10
2018-09-12T15:04:48.410Z,3.65
2018-09-12T15:07:00.620Z,3.00
2018-09-12T15:09:12.886Z,3.25
2018-09-12T15:11:25.235Z,3.08
2018-09-12T15:13:37.480Z,3.42
2018-09-12T15:15:49.751Z,3.47
2018-09-12T15:18:02.032Z,3.58
2018-09-12T15:20:15.460Z,3.92
2018-09-12T15:22:27.772Z,3.40
2018-09-12T15:24:40.046Z,3.40
2018-09-12T15:26:52.300Z,3.20
2018-09-12T15:29:04.597Z,3.60
2018-09-12T15:31:16.878Z,3.12
2018-09-12T15:33:29.148Z,3.22
2018-09-12T15:35:41.346Z,3.33
2018-09-12T15:37:53.596Z,3.20
2018-09-12T15:40:05.911Z,3.27
2018-09-12T15:42:18.162Z,3.40
2018-09-12T15:44:30.463Z,3.52
2018-09-12T15:46:42.775Z,3.62
2018-09-12T15:48:55.371Z,3.17
2018-09-12T15:51:07.607Z,3.45
2018-09-12T15:53:19.841Z,3.10
2018-09-12T15:55:32.149Z,3.05
2018-09-12T15:57:44.398Z,3.70
2018-09-12T15:59:56.874Z,3.70
2018-09-12T16:02:09.173Z,3.92
2018-09-12T16:04:21.563Z,3.27
2018-09-12T16:06:33.700Z,3.40
2018-09-12T16:08:45.985Z,2.92
2018-09-12T16:10:58.254Z,3.50
2018-09-12T16:13:10.655Z,3.45
2018-09-12T16:15:22.989Z,3.33
2018-09-12T16:17:35.214Z,3.27
2018-09-12T16:19:47.475Z,3.58
2018-09-12T16:21:59.692Z,3.02
2018-09-12T16:24:11.935Z,3.35
2018-09-12T16:26:24.165Z,3.30
2018-09-12T16:28:36.410Z,3.37
2018-09-12T16:30:48.747Z,4.00
2018-09-12T16:33:01.040Z,3.58
2018-09-12T16:35:13.313Z,3.90
2018-09-12T16:37:25.624Z,4.03
2018-09-12T16:39:37.879Z,3.25
2018-09-12T16:41:50.132Z,4.00
2018-09-12T16:44:02.322Z,3.98
2018-09-12T16:46:14.622Z,3.72
2018-09-12T16:48:26.907Z,3.37
2018-09-12T16:50:39.221Z,3.15
2018-09-12T16:52:51.482Z,3.20
2018-09-12T16:55:03.790Z,3.50
2018-09-12T16:57:16.038Z,3.52
2018-09-12T16:59:28.381Z,3.77
2018-09-12T17:01:40.629Z,3.50
2018-09-12T17:03:52.935Z,3.50
2018-09-12T17:06:05.173Z,3.55
2018-09-12T17:08:17.454Z,3.47
2018-09-12T17:10:29.703Z,3.07
2018-09-12T17:12:41.952Z,3.22
2018-09-12T17:14:54.188Z,4.50
2018-09-12T17:17:06.468Z,3.40
2018-09-12T17:19:18.708Z,2.98
2018-09-12T17:21:31.765Z,3.80
2018-09-12T17:23:44.083Z,3.15
2018-09-12T17:25:56.291Z,3.55
2018-09-12T17:28:08.684Z,3.27
2018-09-12T17:30:21.005Z,3.87
2018-09-12T17:32:33.353Z,4.45
2018-09-12T17:34:45.536Z,4.43
2018-09-12T17:36:57.811Z,3.83
2018-09-12T17:39:10.414Z,4.03
2018-09-12T17:41:22.687Z,4.25
2018-09-12T17:43:35.499Z,4.33
2018-09-12T17:45:47.805Z,4.80
2018-09-12T17:48:00.139Z,3.93
2018-09-12T17:50:12.463Z,4.23
2018-09-12T17:52:24.700Z,4.30
2018-09-12T17:54:37.019Z,3.27
2018-09-12T17:56:49.343Z,4.40
2018-09-12T17:59:01.558Z,4.03
2018-09-12T18:01:13.928Z,4.20
2018-09-12T18:03:26.164Z,4.77
2018-09-12T18:05:38.515Z,4.53
2018-09-12T18:07:50.761Z,4.67
2018-09-12T18:10:03.104Z,5.50
2018-09-12T18:12:15.362Z,6.80
2018-09-12T18:14:27.576Z,4.20
2018-09-12T18:16:39.936Z,5.33
2018-09-12T18:18:52.224Z,4.83
2018-09-12T18:21:04.538Z,4.80
2018-09-12T18:23:16.758Z,3.80
2018-09-12T18:25:29.014Z,4.73
2018-09-12T18:27:41.268Z,4.53
2018-09-12T18:29:53.638Z,4.87
2018-09-12T18:32:05.970Z,5.27
2018-09-12T18:34:18.196Z,4.33
2018-09-12T18:36:30.465Z,4.20
2018-09-12T18:38:42.736Z,3.87
2018-09-12T18:40:55.089Z,5.17
2018-09-12T18:43:07.536Z,4.73
2018-09-12T18:45:19.861Z,6.50
2018-09-12T18:47:32.056Z,4.97
2018-09-12T18:49:44.272Z,4.17
2018-09-12T18:51:56.577Z,4.57
2018-09-12T18:54:08.903Z,4.10
2018-09-12T18:56:21.112Z,5.10
2018-09-12T18:58:33.358Z,4.60
2018-09-12T19:00:45.599Z,5.20
2018-09-12T19:02:58.657Z,5.33
2018-09-12T19:05:10.916Z,5.50
2018-09-12T19:07:23.197Z,4.60
2018-09-12T19:09:35.391Z,5.00
2018-09-12T19:11:47.691Z,5.10
2018-09-12T19:13:59.968Z,5.30
2018-09-12T19:16:12.514Z,4.97
2018-09-12T19:18:25.014Z,4.93
2018-09-12T19:20:37.099Z,4.20
2018-09-12T19:22:49.311Z,5.50
2018-09-12T19:25:01.555Z,4.77
2018-09-12T19:27:13.824Z,5.47
2018-09-12T19:29:26.063Z,4.43
2018-09-12T19:31:38.315Z,4.97
2018-09-12T19:33:50.625Z,4.67
2018-09-12T19:36:02.954Z,5.10
2018-09-12T19:38:15.067Z,4.77
2018-09-12T19:40:27.323Z,5.30
2018-09-12T19:42:39.566Z,5.07
2018-09-12T19:44:51.792Z,4.03
2018-09-12T19:47:04.041Z,4.57
2018-09-12T19:49:16.282Z,4.47
2018-09-12T19:51:28.495Z,4.03
2018-09-12T19:53:40.773Z,5.30
2018-09-12T19:55:52.994Z,6.70
2018-09-12T19:58:05.237Z,6.00
2018-09-12T20:00:18.690Z,5.77
2018-09-12T20:02:33.090Z,4.90
2018-09-12T20:04:45.366Z,5.17
2018-09-12T20:06:57.666Z,4.60
2018-09-12T20:09:11.019Z,5.30
2018-09-12T20:11:23.457Z,4.33
2018-09-12T20:13:35.700Z,5.17
2018-09-12T20:15:48.003Z,5.13
2018-09-12T20:18:00.279Z,3.93
2018-09-12T20:20:12.565Z,4.97
2018-09-12T20:22:24.846Z,4.73
2018-09-12T20:24:37.141Z,4.40
2018-09-12T20:26:49.432Z,4.50
2018-09-12T20:29:01.657Z,4.80
2018-09-12T20:31:13.905Z,4.90
2018-09-12T20:33:26.134Z,4.50
2018-09-12T20:35:38.483Z,4.00
2018-09-12T20:37:50.682Z,3.70
2018-09-12T20:40:02.977Z,4.80
2018-09-12T20:42:15.187Z,5.57
2018-09-12T20:44:27.499Z,4.43
2018-09-12T20:46:39.780Z,4.07
2018-09-12T20:48:52.063Z,5.10
2018-09-12T20:51:04.312Z,5.00
2018-09-12T20:53:16.715Z,4.90
2018-09-12T20:55:28.919Z,5.20
2018-09-12T20:57:41.143Z,5.13
2018-09-12T20:59:53.367Z,5.80
2018-09-12T21:02:05.664Z,5.47
2018-09-12T21:04:17.876Z,5.43
2018-09-12T21:06:30.159Z,5.50
2018-09-12T21:08:42.379Z,5.57
2018-09-12T21:10:54.658Z,6.20
2018-09-12T21:13:06.834Z,5.93
2018-09-12T21:15:19.039Z,6.20
2018-09-12T21:17:31.259Z,7.33
2018-09-12T21:19:43.495Z,6.37
2018-09-12T21:21:55.704Z,7.07
2018-09-12T21:24:07.979Z,7.10
2018-09-12T21:26:20.238Z,6.60
2018-09-12T21:28:32.503Z,6.97
2018-09-12T21:30:44.768Z,7.47
2018-09-12T21:32:56.999Z,7.67
2018-09-12T21:35:09.247Z,7.07
2018-09-12T21:37:23.170Z,7.87
2018-09-12T21:39:35.410Z,6.97
2018-09-12T21:41:47.605Z,7.27
2018-09-12T21:43:59.871Z,7.50
2018-09-12T21:46:12.040Z,6.63
2018-09-12T21:48:24.243Z,6.90
2018-09-12T21:50:36.481Z,7.17
2018-09-12T21:52:48.687Z,7.03
2018-09-12T21:55:00.968Z,6.30
2018-09-12T21:57:13.198Z,7.97
2018-09-12T21:59:25.436Z,8.03
2018-09-12T22:01:37.642Z,7.83
2018-09-12T22:03:49.860Z,7.60
2018-09-12T22:06:02.118Z,7.83
2018-09-12T22:08:14.344Z,8.33
2018-09-12T22:10:26.659Z,7.90
2018-09-12T22:12:38.916Z,6.93
2018-09-12T22:14:51.112Z,7.37
2018-09-12T22:17:03.339Z,8.07
2018-09-12T22:19:15.562Z,7.20
2018-09-12T22:21:27.875Z,7.27
2018-09-12T22:23:40.134Z,8.10
2018-09-12T22:25:52.378Z,7.60
2018-09-12T22:28:04.579Z,7.50
2018-09-12T22:30:16.783Z,7.63
2018-09-12T22:32:29.011Z,7.13
2018-09-12T22:34:41.269Z,6.07
2018-09-12T22:36:53.482Z,5.67
2018-09-12T22:39:07.616Z,5.40
2018-09-12T22:41:19.847Z,5.07
2018-09-12T22:43:32.134Z,5.77
2018-09-12T22:45:44.330Z,5.17
2018-09-12T22:47:56.557Z,5.10
2018-09-12T22:50:08.766Z,4.43
2018-09-12T22:52:21.018Z,5.40
2018-09-12T22:54:33.263Z,5.63
2018-09-12T22:56:45.409Z,5.30
2018-09-12T22:58:57.615Z,5.30
2018-09-12T23:01:09.775Z,5.53
2018-09-12T23:03:21.980Z,5.20
2018-09-12T23:05:34.202Z,4.40
2018-09-12T23:07:46.463Z,4.50
2018-09-12T23:09:58.648Z,4.77
2018-09-12T23:12:10.850Z,4.03
2018-09-12T23:14:23.111Z,4.40
2018-09-12T23:16:35.667Z,3.83
2018-09-12T23:18:47.856Z,3.87
2018-09-12T23:21:00.083Z,4.20
2018-09-12T23:23:12.356Z,3.27
2018-09-12T23:25:24.523Z,3.70
2018-09-12T23:27:36.719Z,3.97
2018-09-12T23:29:48.945Z,3.97
2018-09-12T23:32:01.165Z,4.10
2018-09-12T23:34:13.378Z,3.67
2018-09-12T23:36:25.590Z,4.33
2018-09-12T23:38:37.840Z,4.20
2018-09-12T23:40:50.030Z,4.20
2018-09-12T23:43:02.275Z,4.43
2018-09-12T23:45:14.515Z,4.37
2018-09-12T23:47:26.711Z,4.30
2018-09-12T23:49:38.909Z,4.93
2018-09-12T23:51:51.071Z,4.23
2018-09-12T23:54:03.306Z,4.03
2018-09-12T23:56:15.483Z,4.47
2018-09-12T23:58:27.686Z,3.60
